createdAt,value
2017-09-14T00:02:22.864Z,8.20
2017-09-14T00:04:51.103Z,5.13
2017-09-14T00:07:18.574Z,8.43
2017-09-14T00:09:46.747Z,2.33
2017-09-14T00:12:14.215Z,5.53
2017-09-14T00:14:42.455Z,11.63
2017-09-14T00:17:09.939Z,6.37
2017-09-14T00:19:37.415Z,2.43
2017-09-14T00:22:05.639Z,7.40
2017-09-14T00:24:33.156Z,5.07
2017-09-14T00:27:01.404Z,8.77
2017-09-14T00:29:28.858Z,5.43
2017-09-14T00:31:56.320Z,13.50
2017-09-14T00:34:23.787Z,9.03
2017-09-14T00:36:51.960Z,3.23
2017-09-14T00:39:19.413Z,7.30
2017-09-14T00:41:46.883Z,10.70
2017-09-14T00:44:15.364Z,13.13
2017-09-14T00:46:43.614Z,16.37
2017-09-14T00:49:11.087Z,2.30
2017-09-14T00:51:39.325Z,5.43
2017-09-14T00:54:06.796Z,9.90
2017-09-14T00:56:35.046Z,5.57
2017-09-14T00:59:02.503Z,3.87
2017-09-14T01:01:29.960Z,8.07
2017-09-14T01:03:57.451Z,4.60
2017-09-14T01:06:24.911Z,6.60
2017-09-14T01:08:53.167Z,6.30
2017-09-14T01:11:20.642Z,9.10
2017-09-14T01:13:48.104Z,4.40
2017-09-14T01:16:15.560Z,12.00
2017-09-14T01:18:43.116Z,7.60
2017-09-14T01:21:10.668Z,9.10
2017-09-14T01:23:38.900Z,2.73
2017-09-14T01:26:06.358Z,4.03
2017-09-14T01:28:34.675Z,3.33
2017-09-14T01:31:02.901Z,3.97
2017-09-14T01:33:30.421Z,4.47
2017-09-14T01:35:57.876Z,11.60
2017-09-14T01:38:25.445Z,4.90
2017-09-14T01:40:53.762Z,6.03
2017-09-14T01:43:21.240Z,4.20
2017-09-14T01:45:48.699Z,8.97
2017-09-14T01:48:16.177Z,12.97
2017-09-14T01:50:43.636Z,5.50
2017-09-14T01:53:11.187Z,4.57
2017-09-14T01:55:38.659Z,9.50
2017-09-14T01:58:06.882Z,12.23
2017-09-14T02:00:34.407Z,6.27
2017-09-14T02:03:02.647Z,9.30
2017-09-14T02:05:30.115Z,2.87
2017-09-14T02:07:58.132Z,5.83
2017-09-14T02:10:25.626Z,7.33
2017-09-14T02:12:53.192Z,5.00
2017-09-14T02:15:20.647Z,5.63
2017-09-14T02:17:48.116Z,2.53
2017-09-14T02:20:16.390Z,8.20
2017-09-14T02:22:45.359Z,7.53
2017-09-14T02:25:12.832Z,12.40
2017-09-14T02:27:40.324Z,6.93
2017-09-14T02:30:07.781Z,4.10
2017-09-14T02:32:35.243Z,10.53
2017-09-14T02:35:02.714Z,4.93
2017-09-14T02:37:30.927Z,5.87
2017-09-14T02:39:58.412Z,10.10
2017-09-14T02:42:27.304Z,5.73
2017-09-14T02:44:55.556Z,4.47
2017-09-14T02:47:23.031Z,4.90
2017-09-14T02:49:51.288Z,6.63
2017-09-14T02:52:18.747Z,6.33
2017-09-14T02:54:46.216Z,4.37
2017-09-14T02:57:14.487Z,6.97
2017-09-14T02:59:42.711Z,5.53
2017-09-14T03:02:10.181Z,7.17
2017-09-14T03:04:37.667Z,4.23
2017-09-14T03:07:05.124Z,1.93
2017-09-14T03:09:33.536Z,6.43
2017-09-14T03:12:01.059Z,6.03
2017-09-14T03:14:28.619Z,8.33
2017-09-14T03:16:57.619Z,5.50
2017-09-14T03:19:25.176Z,2.93
2017-09-14T03:21:52.628Z,6.67
2017-09-14T03:24:20.195Z,6.40
2017-09-14T03:26:47.642Z,7.67
2017-09-14T03:29:15.095Z,14.40
2017-09-14T03:31:42.635Z,7.70
2017-09-14T03:34:10.100Z,7.03
2017-09-14T03:36:37.670Z,4.80
2017-09-14T03:39:05.136Z,6.10
2017-09-14T03:41:32.607Z,6.70
2017-09-14T03:44:00.827Z,9.07
2017-09-14T03:46:28.308Z,6.23
2017-09-14T03:48:56.644Z,4.53
2017-09-14T03:51:24.163Z,7.50
2017-09-14T03:53:51.620Z,10.13
2017-09-14T03:56:19.852Z,11.10
2017-09-14T03:58:47.362Z,6.03
2017-09-14T04:01:15.611Z,8.07
2017-09-14T04:03:43.072Z,10.67
2017-09-14T04:06:10.625Z,16.27
2017-09-14T04:08:39.599Z,7.60
2017-09-14T04:11:07.061Z,7.30
2017-09-14T04:13:34.514Z,7.20
2017-09-14T04:16:01.987Z,14.67
2017-09-14T04:18:29.552Z,15.47
2017-09-14T04:20:57.007Z,8.87
2017-09-14T04:23:24.467Z,9.43
2017-09-14T04:25:51.924Z,6.40
2017-09-14T04:28:19.429Z,15.37
2017-09-14T04:30:46.899Z,12.83
2017-09-14T04:33:15.208Z,7.70
2017-09-14T04:35:42.663Z,7.40
2017-09-14T04:38:10.131Z,4.57
2017-09-14T04:40:37.582Z,5.77
2017-09-14T04:43:05.142Z,8.40
2017-09-14T04:45:33.252Z,18.20
2017-09-14T04:48:00.719Z,9.83
2017-09-14T04:50:28.176Z,10.20
2017-09-14T04:52:55.683Z,6.63
2017-09-14T04:55:23.184Z,6.67
2017-09-14T04:57:50.647Z,10.37
2017-09-14T05:00:18.156Z,6.47
2017-09-14T05:02:45.714Z,6.67
2017-09-14T05:05:13.264Z,4.83
2017-09-14T05:07:40.731Z,5.37
2017-09-14T05:10:08.281Z,9.70
2017-09-14T05:12:35.776Z,5.67
2017-09-14T05:15:03.297Z,9.60
2017-09-14T05:17:30.763Z,10.70
2017-09-14T05:19:58.227Z,10.13
2017-09-14T05:22:26.496Z,8.83
2017-09-14T05:24:53.954Z,5.90
2017-09-14T05:27:22.235Z,15.40
2017-09-14T05:29:49.704Z,6.00
2017-09-14T05:32:17.928Z,10.40
2017-09-14T05:34:45.404Z,12.80
2017-09-14T05:37:13.168Z,11.87
2017-09-14T05:39:40.692Z,10.47
2017-09-14T05:42:08.156Z,17.53
2017-09-14T05:44:35.655Z,15.77
2017-09-14T05:47:03.900Z,16.23
2017-09-14T05:49:31.363Z,11.90
2017-09-14T05:51:58.886Z,14.80
2017-09-14T05:54:26.393Z,14.33
2017-09-14T05:56:55.370Z,15.00
2017-09-14T05:59:22.839Z,9.07
2017-09-14T06:01:50.296Z,14.60
2017-09-14T06:04:17.760Z,10.63
2017-09-14T06:06:45.229Z,17.40
2017-09-14T06:09:13.455Z,17.47
2017-09-14T06:11:41.025Z,13.40
2017-09-14T06:14:08.494Z,14.00
2017-09-14T06:16:35.954Z,11.80
2017-09-14T06:19:04.212Z,12.10
2017-09-14T06:21:31.698Z,13.53
2017-09-14T06:23:59.159Z,11.67
2017-09-14T06:26:26.624Z,17.80
2017-09-14T06:28:54.874Z,14.50
2017-09-14T06:31:22.331Z,15.53
2017-09-14T06:33:49.895Z,15.60
2017-09-14T06:36:18.128Z,18.33
2017-09-14T06:38:45.619Z,9.30
2017-09-14T06:41:13.082Z,10.10
2017-09-14T06:43:41.380Z,14.17
2017-09-14T06:46:09.606Z,16.17
2017-09-14T06:48:37.124Z,14.27
2017-09-14T06:51:04.606Z,11.00
2017-09-14T06:53:32.087Z,8.30
2017-09-14T06:55:59.552Z,12.23
2017-09-14T06:58:27.024Z,12.00
2017-09-14T07:00:54.584Z,7.60
2017-09-14T07:03:22.132Z,8.23
2017-09-14T07:05:49.693Z,13.80
2017-09-14T07:08:17.155Z,6.50
2017-09-14T07:10:44.611Z,14.60
2017-09-14T07:13:12.853Z,16.33
2017-09-14T07:15:40.320Z,9.53
2017-09-14T07:18:07.807Z,14.13
2017-09-14T07:20:35.351Z,13.30
2017-09-14T07:23:02.919Z,9.83
2017-09-14T07:25:30.376Z,10.30
2017-09-14T07:27:57.863Z,10.23
2017-09-14T07:30:25.383Z,9.13
2017-09-14T07:32:52.855Z,12.43
2017-09-14T07:35:21.120Z,11.73
2017-09-14T07:37:48.602Z,7.40
2017-09-14T07:40:17.471Z,6.90
2017-09-14T07:42:45.019Z,12.57
2017-09-14T07:45:12.515Z,10.10
2017-09-14T07:47:40.734Z,5.70
2017-09-14T07:50:08.219Z,9.13
2017-09-14T07:52:35.680Z,8.90
2017-09-14T07:55:03.941Z,6.47
2017-09-14T07:57:31.408Z,10.60
2017-09-14T07:59:59.676Z,10.33
2017-09-14T08:02:27.138Z,11.00
2017-09-14T08:04:54.604Z,8.60
2017-09-14T08:07:22.859Z,5.30
2017-09-14T08:09:50.328Z,4.63
2017-09-14T08:12:17.801Z,3.70
2017-09-14T08:14:46.024Z,3.93
2017-09-14T08:17:13.804Z,6.00
2017-09-14T08:19:41.273Z,2.10
2017-09-14T08:22:08.729Z,11.40
2017-09-14T08:24:36.180Z,3.07
2017-09-14T08:27:03.660Z,4.20
2017-09-14T08:29:31.888Z,3.97
2017-09-14T08:31:59.373Z,3.70
2017-09-14T08:34:26.933Z,4.87
2017-09-14T08:36:54.383Z,2.10
2017-09-14T08:39:23.359Z,6.07
2017-09-14T08:41:50.832Z,9.23
2017-09-14T08:44:18.300Z,2.70
2017-09-14T08:46:47.275Z,4.83
2017-09-14T08:49:14.740Z,4.20
2017-09-14T08:51:42.204Z,7.50
2017-09-14T08:54:09.651Z,2.47
2017-09-14T08:56:37.438Z,5.40
2017-09-14T08:59:05.666Z,4.67
2017-09-14T09:01:33.160Z,4.23
2017-09-14T09:04:00.633Z,3.23
2017-09-14T09:06:28.855Z,10.23
2017-09-14T09:08:56.344Z,4.43
2017-09-14T09:11:23.807Z,4.33
2017-09-14T09:13:51.360Z,6.20
2017-09-14T09:16:18.819Z,4.27
2017-09-14T09:18:46.470Z,10.27
2017-09-14T09:21:14.023Z,8.23
2017-09-14T09:23:41.508Z,4.37
2017-09-14T09:26:09.988Z,6.57
2017-09-14T09:28:38.208Z,4.37
2017-09-14T09:31:05.672Z,7.43
2017-09-14T09:33:33.151Z,3.67
2017-09-14T09:36:00.609Z,4.60
2017-09-14T09:38:28.892Z,7.27
2017-09-14T09:40:56.364Z,4.13
2017-09-14T09:43:23.903Z,2.33
2017-09-14T09:45:51.361Z,3.30
2017-09-14T09:48:19.115Z,3.77
2017-09-14T09:50:47.407Z,4.23
2017-09-14T09:53:14.875Z,6.90
2017-09-14T09:55:43.232Z,2.43
2017-09-14T09:58:10.803Z,4.23
2017-09-14T10:00:38.347Z,2.63
2017-09-14T10:03:05.826Z,5.50
2017-09-14T10:05:34.988Z,4.07
2017-09-14T10:08:02.454Z,6.67
2017-09-14T10:10:29.922Z,5.87
2017-09-14T10:12:57.379Z,2.80
2017-09-14T10:15:24.835Z,3.17
2017-09-14T10:17:52.310Z,2.93
2017-09-14T10:20:20.533Z,4.07
2017-09-14T10:22:48.000Z,3.17
2017-09-14T10:25:15.991Z,9.73
2017-09-14T10:27:43.450Z,8.83
2017-09-14T10:30:11.008Z,4.73
2017-09-14T10:32:38.529Z,3.60
2017-09-14T10:35:06.016Z,7.67
2017-09-14T10:37:34.256Z,4.40
2017-09-14T10:40:01.732Z,2.30
2017-09-14T10:42:29.206Z,4.30
2017-09-14T10:44:56.660Z,5.03
2017-09-14T10:47:24.131Z,8.57
2017-09-14T10:49:52.392Z,2.83
2017-09-14T10:52:19.859Z,5.47
2017-09-14T10:54:47.332Z,7.37
2017-09-14T10:57:15.592Z,9.73
2017-09-14T10:59:43.051Z,5.53
2017-09-14T11:02:10.804Z,7.47
2017-09-14T11:04:38.265Z,4.83
2017-09-14T11:07:06.538Z,10.97
2017-09-14T11:09:34.807Z,10.23
2017-09-14T11:12:02.276Z,5.87
2017-09-14T11:14:31.240Z,6.03
2017-09-14T11:16:58.720Z,17.10
2017-09-14T11:19:26.273Z,4.90
2017-09-14T11:21:55.235Z,7.20
2017-09-14T11:24:22.720Z,6.37
2017-09-14T11:26:50.218Z,7.43
2017-09-14T11:29:17.668Z,9.60
2017-09-14T11:31:45.196Z,8.87
2017-09-14T11:34:12.662Z,16.60
2017-09-14T11:36:40.130Z,14.87
2017-09-14T11:39:08.610Z,19.33
2017-09-14T11:41:36.831Z,14.37
2017-09-14T11:44:04.300Z,8.53
2017-09-14T11:46:32.092Z,14.10
2017-09-14T11:49:00.331Z,9.60
2017-09-14T11:51:27.802Z,14.53
2017-09-14T11:53:55.372Z,6.73
2017-09-14T11:56:22.833Z,8.43
2017-09-14T11:58:50.282Z,7.03
2017-09-14T12:01:17.755Z,8.17
2017-09-14T12:03:45.299Z,15.50
2017-09-14T12:06:12.777Z,4.80
2017-09-14T12:08:41.015Z,10.63
2017-09-14T12:11:08.492Z,12.87
2017-09-14T12:13:35.948Z,6.20
2017-09-14T12:16:03.427Z,11.50
2017-09-14T12:18:31.660Z,7.33
2017-09-14T12:20:59.120Z,15.67
2017-09-14T12:23:26.607Z,13.90
2017-09-14T12:25:54.828Z,15.30
2017-09-14T12:28:22.283Z,12.03
2017-09-14T12:30:49.783Z,16.40
2017-09-14T12:33:18.776Z,15.00
2017-09-14T12:35:46.248Z,12.50
2017-09-14T12:38:14.527Z,14.50
2017-09-14T12:40:42.752Z,16.33
2017-09-14T12:43:10.211Z,15.83
2017-09-14T12:45:37.696Z,17.20
2017-09-14T12:48:05.147Z,18.50
2017-09-14T12:50:33.078Z,25.87
2017-09-14T12:53:00.637Z,17.97
2017-09-14T12:55:28.108Z,20.13
2017-09-14T12:57:56.570Z,12.47
2017-09-14T13:00:24.092Z,14.47
2017-09-14T13:02:52.328Z,19.93
2017-09-14T13:05:19.784Z,12.57
2017-09-14T13:07:47.363Z,19.77
2017-09-14T13:10:14.815Z,18.70
2017-09-14T13:12:42.280Z,18.70
2017-09-14T13:15:11.280Z,8.43
2017-09-14T13:17:39.512Z,14.47
2017-09-14T13:20:06.997Z,10.23
2017-09-14T13:22:34.475Z,11.77
2017-09-14T13:25:02.703Z,10.77
2017-09-14T13:27:30.159Z,9.53
2017-09-14T13:29:57.643Z,15.63
2017-09-14T13:32:25.108Z,11.43
2017-09-14T13:34:52.579Z,12.93
2017-09-14T13:37:20.832Z,17.13
2017-09-14T13:39:48.295Z,24.27
2017-09-14T13:42:15.764Z,17.53
2017-09-14T13:44:44.029Z,13.43
2017-09-14T13:47:11.497Z,17.87
2017-09-14T13:49:39.725Z,26.13
2017-09-14T13:52:07.230Z,14.93
2017-09-14T13:54:35.488Z,18.13
2017-09-14T13:57:02.953Z,22.40
2017-09-14T13:59:31.127Z,22.40
2017-09-14T14:01:59.422Z,15.50
2017-09-14T14:04:27.647Z,15.97
2017-09-14T14:06:55.485Z,13.53
2017-09-14T14:09:22.973Z,18.57
2017-09-14T14:11:50.443Z,18.57
2017-09-14T14:14:18.008Z,11.03
2017-09-14T14:16:45.468Z,9.23
2017-09-14T14:19:13.344Z,11.20
2017-09-14T14:21:41.610Z,10.70
2017-09-14T14:24:09.071Z,10.50
2017-09-14T14:26:37.380Z,16.67
2017-09-14T14:29:04.864Z,11.97
2017-09-14T14:31:32.358Z,10.10
2017-09-14T14:33:59.815Z,8.87
2017-09-14T14:36:27.320Z,21.43
2017-09-14T14:38:54.820Z,15.03
2017-09-14T14:41:22.283Z,11.13
2017-09-14T14:43:50.545Z,16.20
2017-09-14T14:46:18.056Z,14.70
2017-09-14T14:48:45.513Z,14.30
2017-09-14T14:51:12.984Z,12.73
2017-09-14T14:53:40.449Z,14.70
2017-09-14T14:56:07.913Z,19.00
2017-09-14T14:58:35.500Z,19.10
2017-09-14T15:01:02.960Z,8.60
2017-09-14T15:03:30.419Z,14.13
2017-09-14T15:05:57.976Z,8.43
2017-09-14T15:08:25.632Z,22.00
2017-09-14T15:10:54.734Z,12.30
2017-09-14T15:13:22.280Z,7.20
2017-09-14T15:15:51.260Z,6.80
2017-09-14T15:18:18.735Z,10.07
2017-09-14T15:20:46.296Z,8.77
2017-09-14T15:23:14.539Z,18.57
2017-09-14T15:25:42.019Z,17.27
2017-09-14T15:28:09.544Z,18.03
2017-09-14T15:30:37.033Z,33.93
2017-09-14T15:33:04.501Z,13.37
2017-09-14T15:35:31.982Z,13.53
2017-09-14T15:38:00.220Z,11.23
2017-09-14T15:40:33.480Z,16.53
2017-09-14T15:43:06.610Z,12.60
2017-09-14T15:45:40.267Z,7.63
2017-09-14T15:48:13.457Z,7.03
2017-09-14T15:50:46.699Z,7.43
2017-09-14T15:53:14.931Z,7.53
2017-09-14T15:55:42.387Z,9.67
2017-09-14T15:58:09.925Z,18.30
2017-09-14T16:00:37.452Z,4.93
2017-09-14T16:03:05.993Z,14.40
2017-09-14T16:05:34.493Z,6.87
2017-09-14T16:08:01.971Z,16.80
2017-09-14T16:10:30.232Z,7.67
2017-09-14T16:12:57.698Z,18.27
2017-09-14T16:15:25.320Z,15.70
2017-09-14T16:17:53.375Z,11.73
2017-09-14T16:20:20.869Z,18.87
2017-09-14T16:22:49.164Z,14.20
2017-09-14T16:25:17.399Z,21.90
2017-09-14T16:27:44.984Z,17.00
2017-09-14T16:30:13.073Z,16.63
2017-09-14T16:32:41.340Z,9.30
2017-09-14T16:35:08.899Z,21.50
2017-09-14T16:37:37.176Z,18.47
2017-09-14T16:40:04.735Z,18.20
2017-09-14T16:42:32.212Z,14.17
2017-09-14T16:45:00.480Z,12.30
2017-09-14T16:47:28.725Z,17.40
2017-09-14T16:49:56.191Z,13.83
2017-09-14T16:52:24.468Z,7.03
2017-09-14T16:54:51.951Z,6.13
2017-09-14T16:57:20.191Z,27.30
2017-09-14T16:59:47.666Z,25.73
2017-09-14T17:02:15.506Z,13.00
2017-09-14T17:04:43.799Z,16.83
2017-09-14T17:07:11.276Z,12.90
2017-09-14T17:09:39.505Z,13.20
2017-09-14T17:12:06.967Z,22.10
2017-09-14T17:14:34.429Z,25.07
2017-09-14T17:17:01.887Z,30.73
2017-09-14T17:19:29.641Z,20.37
2017-09-14T17:21:57.120Z,18.33
2017-09-14T17:24:25.380Z,6.73
2017-09-14T17:26:52.997Z,9.17
2017-09-14T17:29:20.461Z,17.97
2017-09-14T17:31:47.986Z,13.20
2017-09-14T17:34:15.464Z,14.70
2017-09-14T17:36:42.978Z,17.97
2017-09-14T17:39:10.444Z,16.80
2017-09-14T17:41:37.999Z,12.53
2017-09-14T17:44:05.483Z,13.63
2017-09-14T17:46:34.718Z,15.80
2017-09-14T17:49:02.189Z,10.13
2017-09-14T17:51:29.652Z,25.00
2017-09-14T17:53:57.124Z,12.07
2017-09-14T17:56:24.592Z,9.50
2017-09-14T17:58:52.060Z,7.80
2017-09-14T18:01:20.303Z,11.43
2017-09-14T18:03:47.949Z,11.97
2017-09-14T18:06:15.416Z,15.03
2017-09-14T18:08:42.909Z,9.87
2017-09-14T18:11:11.227Z,14.17
2017-09-14T18:13:38.701Z,13.87
2017-09-14T18:16:06.542Z,24.90
2017-09-14T18:18:34.400Z,17.13
2017-09-14T18:21:02.040Z,18.03
2017-09-14T18:23:30.303Z,19.47
2017-09-14T18:25:58.900Z,16.40
2017-09-14T18:28:27.135Z,12.40
2017-09-14T18:30:54.612Z,15.63
2017-09-14T18:33:22.226Z,10.23
2017-09-14T18:35:49.724Z,12.97
2017-09-14T18:38:17.245Z,18.07
2017-09-14T18:40:46.164Z,16.17
2017-09-14T18:43:14.447Z,18.57
2017-09-14T18:45:43.494Z,17.30
2017-09-14T18:48:11.017Z,18.00
2017-09-14T18:50:39.277Z,10.10
2017-09-14T18:53:06.743Z,11.20
2017-09-14T18:55:34.296Z,15.77
2017-09-14T18:58:01.756Z,10.93
2017-09-14T19:00:29.233Z,16.47
2017-09-14T19:02:57.461Z,15.37
2017-09-14T19:05:24.924Z,10.87
2017-09-14T19:07:52.380Z,15.07
2017-09-14T19:10:19.868Z,16.17
2017-09-14T19:12:48.103Z,12.30
2017-09-14T19:15:15.566Z,11.43
2017-09-14T19:17:43.045Z,13.33
2017-09-14T19:20:10.504Z,23.13
2017-09-14T19:22:38.728Z,13.67
2017-09-14T19:25:06.188Z,8.77
2017-09-14T19:27:33.680Z,20.00
2017-09-14T19:30:01.140Z,18.33
2017-09-14T19:32:28.700Z,13.90
2017-09-14T19:34:56.157Z,17.67
2017-09-14T19:37:24.203Z,9.40
2017-09-14T19:39:51.686Z,25.07
2017-09-14T19:42:19.243Z,10.37
2017-09-14T19:44:46.699Z,20.20
2017-09-14T19:47:14.175Z,19.33
2017-09-14T19:49:42.403Z,19.47
2017-09-14T19:52:09.876Z,15.20
2017-09-14T19:54:37.347Z,18.37
2017-09-14T19:57:04.880Z,11.97
2017-09-14T19:59:32.392Z,14.03
2017-09-14T20:02:00.631Z,15.90
2017-09-14T20:04:28.100Z,28.33
2017-09-14T20:06:55.559Z,30.67
2017-09-14T20:09:23.815Z,24.87
2017-09-14T20:11:51.287Z,24.00
2017-09-14T20:14:18.804Z,19.70
2017-09-14T20:16:46.426Z,23.83
2017-09-14T20:19:14.647Z,16.87
2017-09-14T20:21:42.113Z,20.40
2017-09-14T20:24:09.625Z,27.33
2017-09-14T20:26:37.143Z,12.73
2017-09-14T20:29:04.615Z,14.40
2017-09-14T20:31:32.851Z,17.73
2017-09-14T20:34:00.307Z,18.03
2017-09-14T20:36:27.801Z,23.60
2017-09-14T20:38:56.584Z,25.77
2017-09-14T20:41:24.832Z,24.33
2017-09-14T20:43:52.290Z,16.57
2017-09-14T20:46:19.868Z,21.80
2017-09-14T20:48:47.381Z,15.90
2017-09-14T20:51:14.831Z,17.83
2017-09-14T20:53:42.303Z,21.33
2017-09-14T20:56:09.787Z,23.67
2017-09-14T20:58:37.356Z,15.47
2017-09-14T21:01:04.819Z,24.70
2017-09-14T21:03:33.087Z,17.57
2017-09-14T21:06:00.548Z,21.03
2017-09-14T21:08:28.017Z,18.73
2017-09-14T21:10:56.267Z,20.70
2017-09-14T21:13:23.827Z,15.03
2017-09-14T21:15:51.311Z,19.87
2017-09-14T21:18:19.560Z,19.27
2017-09-14T21:20:47.020Z,17.33
2017-09-14T21:23:14.497Z,23.87
2017-09-14T21:25:41.948Z,9.57
2017-09-14T21:28:10.180Z,12.90
2017-09-14T21:30:37.651Z,19.70
2017-09-14T21:33:05.111Z,29.17
2017-09-14T21:35:32.584Z,15.03
2017-09-14T21:38:00.052Z,20.23
2017-09-14T21:40:28.312Z,11.93
2017-09-14T21:42:56.724Z,21.53
2017-09-14T21:45:24.201Z,16.70
2017-09-14T21:47:51.655Z,14.17
2017-09-14T21:50:19.150Z,15.77
2017-09-14T21:52:46.624Z,15.37
2017-09-14T21:55:14.112Z,14.67
2017-09-14T21:57:41.640Z,28.83
2017-09-14T22:00:09.191Z,17.10
2017-09-14T22:02:37.095Z,13.77
2017-09-14T22:05:04.552Z,17.40
2017-09-14T22:07:33.750Z,18.70
2017-09-14T22:10:01.263Z,26.17
2017-09-14T22:12:28.823Z,12.97
2017-09-14T22:14:56.286Z,13.57
2017-09-14T22:17:23.757Z,21.90
2017-09-14T22:19:52.051Z,12.20
2017-09-14T22:22:20.279Z,13.57
2017-09-14T22:24:47.850Z,15.83
2017-09-14T22:27:15.303Z,14.73
2017-09-14T22:29:42.776Z,17.00
2017-09-14T22:32:10.998Z,13.30
2017-09-14T22:34:38.547Z,12.77
2017-09-14T22:37:06.261Z,14.40
2017-09-14T22:39:33.816Z,15.53
2017-09-14T22:42:01.276Z,17.87
2017-09-14T22:44:28.832Z,16.43
2017-09-14T22:46:57.063Z,12.37
2017-09-14T22:49:24.569Z,7.40
2017-09-14T22:51:52.056Z,11.03
2017-09-14T22:54:19.583Z,21.40
2017-09-14T22:56:47.034Z,8.63
2017-09-14T22:59:14.499Z,13.83
2017-09-14T23:01:41.959Z,11.90
2017-09-14T23:04:10.179Z,5.33
2017-09-14T23:06:37.655Z,9.73
2017-09-14T23:09:05.131Z,8.33
2017-09-14T23:11:33.088Z,8.60
2017-09-14T23:14:00.564Z,12.27
2017-09-14T23:16:28.116Z,13.70
2017-09-14T23:18:55.583Z,11.20
2017-09-14T23:21:23.139Z,4.60
2017-09-14T23:23:50.699Z,10.13
2017-09-14T23:26:18.147Z,7.60
2017-09-14T23:28:47.123Z,6.57
2017-09-14T23:31:14.604Z,11.17
2017-09-14T23:33:42.155Z,10.63
2017-09-14T23:36:09.625Z,9.93
2017-09-14T23:38:37.607Z,19.07
2017-09-14T23:41:05.836Z,15.70
2017-09-14T23:43:33.319Z,18.93
2017-09-14T23:46:00.778Z,15.03
2017-09-14T23:48:28.332Z,21.03
2017-09-14T23:50:55.803Z,10.70
2017-09-14T23:53:24.024Z,8.17
2017-09-14T23:55:51.479Z,10.37
2017-09-14T23:58:18.975Z,14.40
